Terminal Aerodrome Forecast
Issued by NWS

Home | Current Version | Previous Version | Text Only | Print | Product List | Glossary Off
Versions: 1 2 3 4 5 6 7 8 9 10 11 12 13 14 15 16 17 18 19 20 21 22 23 24 25 26

204
FTUS43 KBIS 240626 AAA
TAFJMS
TAF AMD
KJMS 240626Z 2406/2506 VRB15G25KT P6SM VCTS BKN080CB
      TEMPO 2406/2408 5SM -SHRA BKN060
     FM240800 28005KT P6SM VCTS BKN150CB
     FM241100 32005KT P6SM BKN200
     FM241500 16006KT P6SM FEW250
     FM250200 13006KT P6SM SCT250=

USA.gov is the U.S. government's official web portal to all federal, state and local government web resources and services.